Strona główna
METAR-TAF:

METAR-TAF

Lotnisko :

Laconia Municipal Airport

Laconia, New Hampshire, Stany Zjednoczone

Szerokość geograficzna: 43-34N, Długość geograficzna: 071-25W, wysokość: 166 m

Aktualna obserwacja pogody

Raport powstał 33 minut temu, godzina 09:56 UTC
Wiatr 3 kt od południowy zachód
Temperatura -2°C
Wilgotność 69%
Ciśnienie 1019 hPa
Widzialność: 16.1 km
bezchmurnie

METAR: KLCI 220956Z AUTO 23003KT 10SM CLR M02/M07 A3009 RMK AO2 SLP208 T10171067 FZRANO $

czas: 06:29 (10:29 UTC)


TAF: brakujący

Obserwacja i prognoza pogody dla ponad 4000 lotnisk (raport METAR i TAF).

Dostępne stacje oznaczono żółtymi i czerwonymi punktami na mapie.

Najedź kursorem aby zobaczyć nazwę stacji.

Kliknij aby zobaczyć obserwacje i prognozy pogody.

Aby zmienić mapę: kliknij na zielony przycisk z czarnym krzyżykiem, aby powiększyć; na zielony przycisk z myślnikiem, aby pomniejszyć; na zielone strzałki, aby przejść do map sąsiednich.


METAR-TAF: